createdAt,value
2023-02-15T00:00:41.248Z,101699.84
2023-02-15T00:05:42.949Z,101699.41
2023-02-15T00:10:44.267Z,101676.03
2023-02-15T00:15:45.639Z,101666.38
2023-02-15T00:20:46.934Z,101675.97
2023-02-15T00:25:48.251Z,101666.63
2023-02-15T00:30:49.721Z,101673.22
2023-02-15T00:35:57.447Z,101666.34
2023-02-15T00:41:01.348Z,101672.59
2023-02-15T00:46:05.457Z,101667.19
2023-02-15T00:51:07.101Z,101661.81
2023-02-15T00:56:08.535Z,101663.72
2023-02-15T01:01:12.612Z,101662.09
2023-02-15T01:06:15.973Z,101654.91
2023-02-15T01:11:24.977Z,101651.41
2023-02-15T01:16:28.754Z,101663.63
2023-02-15T01:21:30.311Z,101643.00
2023-02-15T01:26:31.665Z,101627.84
2023-02-15T01:31:33.051Z,101634.78
2023-02-15T01:36:35.356Z,101633.16
2023-02-15T01:41:37.177Z,101633.25
2023-02-15T01:46:44.394Z,101628.84
2023-02-15T01:51:49.703Z,101619.13
2023-02-15T01:56:51.715Z,101621.66
2023-02-15T02:01:56.219Z,101623.59
2023-02-15T02:06:59.882Z,101612.84
2023-02-15T02:12:02.202Z,101619.94
2023-02-15T02:17:23.069Z,101616.38
2023-02-15T02:22:39.459Z,101606.59
2023-02-15T02:27:50.325Z,101581.78
2023-02-15T02:38:16.163Z,101604.03
2023-02-15T02:43:29.619Z,101601.59
2023-02-15T02:48:34.773Z,101603.34
2023-02-15T02:53:36.380Z,101596.59
2023-02-15T02:58:47.203Z,101596.69
2023-02-15T03:03:52.489Z,101554.03
2023-02-15T03:09:02.170Z,101547.03
2023-02-15T03:14:03.579Z,101557.09
2023-02-15T03:19:18.043Z,101574.22
2023-02-15T03:24:27.399Z,101567.34
2023-02-15T03:29:30.882Z,101564.78
2023-02-15T03:34:32.470Z,101562.25
2023-02-15T03:39:50.802Z,101550.13
2023-02-15T03:44:57.959Z,101567.34
2023-02-15T03:50:26.169Z,101574.81
2023-02-15T03:55:28.775Z,101569.66
2023-02-15T04:00:55.031Z,101562.75
2023-02-15T04:05:56.512Z,101549.84
2023-02-15T04:10:57.997Z,101550.84
2023-02-15T04:16:07.236Z,101562.66
2023-02-15T04:21:27.625Z,101553.25
2023-02-15T04:26:29.033Z,101548.91
2023-02-15T04:31:30.450Z,101542.09
2023-02-15T04:36:31.922Z,101515.75
2023-02-15T04:41:34.340Z,101532.00
2023-02-15T04:46:35.684Z,101543.25
2023-02-15T04:51:37.453Z,101529.59
2023-02-15T04:56:39.937Z,101544.22
2023-02-15T05:01:41.636Z,101523.06
2023-02-15T05:06:42.945Z,101518.84
2023-02-15T05:11:44.325Z,101538.66
2023-02-15T05:16:45.745Z,101538.03
2023-02-15T05:21:47.093Z,101533.47
2023-02-15T05:27:07.043Z,101531.03
2023-02-15T05:32:08.620Z,101530.44
2023-02-15T05:37:10.189Z,101520.34
2023-02-15T05:42:11.483Z,101522.63
2023-02-15T05:47:12.832Z,101503.28
2023-02-15T05:52:14.174Z,101531.72
2023-02-15T05:57:15.570Z,101531.63
2023-02-15T06:02:17.015Z,101537.16
2023-02-15T06:07:18.656Z,101535.44
2023-02-15T06:12:19.997Z,101536.88
2023-02-15T06:17:22.487Z,101507.47
2023-02-15T06:22:23.857Z,101542.75
2023-02-15T06:27:25.190Z,101542.06
2023-02-15T06:32:30.281Z,101537.88
2023-02-15T06:37:31.858Z,101519.38
2023-02-15T06:42:33.193Z,101547.47
2023-02-15T06:47:34.537Z,101553.72
2023-02-15T06:52:35.864Z,101557.81
2023-02-15T06:57:37.364Z,101549.41
2023-02-15T07:02:38.835Z,101557.34
2023-02-15T07:07:40.416Z,101584.28
2023-02-15T07:12:45.753Z,101582.91
2023-02-15T07:17:47.740Z,101579.50
2023-02-15T07:22:50.065Z,101566.00
2023-02-15T07:27:57.884Z,101584.97
2023-02-15T07:33:18.495Z,101573.31
2023-02-15T07:38:20.045Z,101558.19
2023-02-15T07:43:21.426Z,101567.41
2023-02-15T07:48:24.936Z,101556.25
2023-02-15T07:53:26.644Z,101543.59
2023-02-15T07:58:48.329Z,101565.56
2023-02-15T08:03:50.285Z,101558.22
2023-02-15T08:08:51.656Z,101569.69
2023-02-15T08:14:05.956Z,101563.22
2023-02-15T08:19:16.491Z,101557.03
2023-02-15T08:24:23.724Z,101552.72
2023-02-15T08:29:27.943Z,101556.72
2023-02-15T08:34:37.708Z,101558.44
2023-02-15T08:39:39.072Z,101554.19
2023-02-15T08:44:40.467Z,101552.91
2023-02-15T08:49:41.803Z,101546.06
2023-02-15T08:54:43.219Z,101543.13
2023-02-15T08:59:45.584Z,101543.09
2023-02-15T09:04:47.252Z,101523.91
2023-02-15T09:09:48.656Z,101535.19
2023-02-15T09:14:49.990Z,101529.34
2023-02-15T09:19:51.479Z,101534.53
2023-02-15T09:24:52.765Z,101533.72
2023-02-15T09:29:54.070Z,101506.75
2023-02-15T09:34:55.430Z,101519.78
2023-02-15T09:39:56.865Z,101505.38
2023-02-15T09:45:05.082Z,101521.72
2023-02-15T09:50:13.740Z,101499.50
2023-02-15T09:55:25.330Z,101519.09
2023-02-15T10:00:48.656Z,101525.72
2023-02-15T10:06:18.037Z,101530.81
2023-02-15T10:11:44.168Z,101537.13
2023-02-15T10:17:13.892Z,101539.84
2023-02-15T10:22:19.419Z,101543.31
2023-02-15T10:27:22.585Z,101539.50
2023-02-15T10:32:30.207Z,101521.94
2023-02-15T10:37:46.805Z,101532.44
2023-02-15T10:42:53.260Z,101504.66
2023-02-15T10:48:16.378Z,101522.91
2023-02-15T10:53:53.465Z,101517.09
2023-02-15T10:59:13.654Z,101516.31
2023-02-15T11:04:17.976Z,101521.00
2023-02-15T11:09:22.950Z,101521.66
2023-02-15T11:14:45.996Z,101518.41
2023-02-15T11:19:53.365Z,101509.28
2023-02-15T11:24:55.442Z,101507.63
2023-02-15T11:30:05.215Z,101511.59
2023-02-15T11:35:12.591Z,101506.38
2023-02-15T11:40:31.286Z,101504.41
2023-02-15T11:45:37.635Z,101485.78
2023-02-15T11:50:39.484Z,101493.00
2023-02-15T11:55:43.825Z,101481.13
2023-02-15T12:00:50.421Z,101487.19
2023-02-15T12:05:59.339Z,101466.38
2023-02-15T12:11:16.306Z,101468.13
2023-02-15T12:16:17.806Z,101466.19
2023-02-15T12:21:34.890Z,101448.09
2023-02-15T12:26:37.841Z,101463.44
2023-02-15T12:31:42.816Z,101460.81
2023-02-15T12:36:51.671Z,101449.19
2023-02-15T12:41:56.184Z,101445.78
2023-02-15T12:47:20.197Z,101429.03
2023-02-15T12:52:21.488Z,101427.69
2023-02-15T12:57:26.234Z,101422.94
2023-02-15T13:02:45.183Z,101400.72
2023-02-15T13:07:51.137Z,101406.72
2023-02-15T13:12:55.106Z,101390.50
2023-02-15T13:17:58.674Z,101377.78
2023-02-15T13:23:06.098Z,101387.25
2023-02-15T13:28:14.787Z,101353.38
2023-02-15T13:33:27.207Z,101371.03
2023-02-15T13:38:52.779Z,101365.69
2023-02-15T13:44:22.314Z,101359.84
2023-02-15T13:49:50.438Z,101360.13
2023-02-15T13:55:22.968Z,101361.16
2023-02-15T14:00:42.072Z,101352.06
2023-02-15T14:05:51.089Z,101337.94
2023-02-15T14:11:07.084Z,101347.00
2023-02-15T14:16:21.325Z,101342.53
2023-02-15T14:21:35.720Z,101315.47
2023-02-15T14:26:54.790Z,101334.69
2023-02-15T14:32:05.159Z,101327.41
2023-02-15T14:37:06.904Z,101270.59
2023-02-15T14:42:34.360Z,101315.34
2023-02-15T14:47:44.157Z,101318.06
2023-02-15T14:53:39.954Z,101327.56
2023-02-15T14:58:53.353Z,101320.22
2023-02-15T15:03:58.363Z,101311.88
2023-02-15T15:09:01.952Z,101316.44
2023-02-15T15:14:04.251Z,101302.53
2023-02-15T15:19:11.133Z,101310.25
2023-02-15T15:24:38.476Z,101324.72
2023-02-15T15:29:41.375Z,101322.72
2023-02-15T15:35:03.739Z,101308.47
2023-02-15T15:40:08.126Z,101308.53
2023-02-15T15:45:34.476Z,101281.19
2023-02-15T15:50:41.217Z,101303.97
2023-02-15T15:55:43.918Z,101294.13
2023-02-15T16:01:09.947Z,101311.28
2023-02-15T16:06:15.698Z,101306.47
2023-02-15T16:11:24.545Z,101309.00
2023-02-15T16:16:29.409Z,101304.94
2023-02-15T16:21:33.043Z,101296.75
2023-02-15T16:26:58.874Z,101308.41
2023-02-15T16:32:01.414Z,101299.78
2023-02-15T16:37:20.582Z,101301.38
2023-02-15T16:42:22.706Z,101312.72
2023-02-15T16:47:28.343Z,101313.59
2023-02-15T16:52:30.560Z,101297.88
2023-02-15T16:57:36.094Z,101293.94
2023-02-15T17:02:56.046Z,101298.00
2023-02-15T17:08:13.214Z,101305.13
2023-02-15T17:13:16.571Z,101312.09
2023-02-15T17:18:23.683Z,101313.16
2023-02-15T17:23:43.362Z,101325.38
2023-02-15T17:28:51.716Z,101312.31
2023-02-15T17:33:55.711Z,101321.84
2023-02-15T17:39:09.686Z,101322.50
2023-02-15T17:44:15.261Z,101325.84
2023-02-15T17:49:27.712Z,101321.16
2023-02-15T17:54:47.786Z,101311.03
2023-02-15T18:00:07.800Z,101306.59
2023-02-15T18:05:33.315Z,101309.78
2023-02-15T18:10:53.230Z,101291.34
2023-02-15T18:15:56.418Z,101316.22
2023-02-15T18:20:57.816Z,101300.47
2023-02-15T18:25:59.132Z,101311.91
2023-02-15T18:31:00.992Z,101312.88
2023-02-15T18:36:06.601Z,101317.91
2023-02-15T18:41:08.015Z,101309.28
2023-02-15T18:46:09.847Z,101300.66
2023-02-15T18:51:20.221Z,101305.13
2023-02-15T18:56:23.291Z,101316.41
2023-02-15T19:01:24.668Z,101272.84
2023-02-15T19:06:26.106Z,101320.59
2023-02-15T19:11:29.544Z,101317.78
2023-02-15T19:16:33.798Z,101311.00
2023-02-15T19:21:35.158Z,101305.53
2023-02-15T19:26:45.685Z,101301.56
2023-02-15T19:31:47.570Z,101315.16
2023-02-15T19:36:51.903Z,101308.16
2023-02-15T19:41:53.913Z,101322.22
2023-02-15T19:46:55.891Z,101325.38
2023-02-15T19:51:58.599Z,101326.19
2023-02-15T19:57:00.521Z,101305.22
2023-02-15T20:02:02.614Z,101321.00
2023-02-15T20:07:09.954Z,101315.66
2023-02-15T20:12:29.927Z,101323.88
2023-02-15T20:17:31.238Z,101312.84
2023-02-15T20:22:34.590Z,101333.00
2023-02-15T20:27:37.365Z,101325.84
2023-02-15T20:32:38.694Z,101321.88
2023-02-15T20:37:40.357Z,101311.50
2023-02-15T20:42:41.769Z,101316.63
2023-02-15T20:47:48.221Z,101311.47
2023-02-15T20:52:51.651Z,101328.78
2023-02-15T20:57:53.372Z,101318.75
2023-02-15T21:03:00.152Z,101317.84
2023-02-15T21:08:02.029Z,101297.53
2023-02-15T21:13:04.516Z,101305.47
2023-02-15T21:18:15.767Z,101317.69
2023-02-15T21:23:20.542Z,101321.44
2023-02-15T21:28:24.269Z,101303.16
2023-02-15T21:33:26.579Z,101289.31
2023-02-15T21:38:31.002Z,101324.75
2023-02-15T21:43:50.844Z,101309.78
2023-02-15T21:48:52.148Z,101307.22
2023-02-15T21:53:53.534Z,101326.81
2023-02-15T21:58:54.899Z,101329.09
2023-02-15T22:03:58.546Z,101330.69
2023-02-15T22:08:59.904Z,101329.22
2023-02-15T22:14:02.055Z,101323.22
2023-02-15T22:19:03.638Z,101312.97
2023-02-15T22:24:05.276Z,101318.97
2023-02-15T22:29:07.208Z,101306.72
2023-02-15T22:34:24.765Z,101308.53
2023-02-15T22:39:26.336Z,101309.25
2023-02-15T22:44:32.057Z,101306.63
2023-02-15T22:49:33.508Z,101267.84
2023-02-15T22:54:34.797Z,101310.72
2023-02-15T22:59:36.175Z,101296.41
2023-02-15T23:04:37.514Z,101303.88
2023-02-15T23:09:38.849Z,101293.81
2023-02-15T23:14:40.231Z,101299.03
2023-02-15T23:19:41.561Z,101304.34
2023-02-15T23:24:46.134Z,101294.03
2023-02-15T23:29:47.478Z,101290.06
2023-02-15T23:34:48.775Z,101297.16
2023-02-15T23:40:10.079Z,101286.91
2023-02-15T23:45:22.048Z,101299.31
2023-02-15T23:50:29.088Z,101294.78
2023-02-15T23:55:36.401Z,101309.13
